28MI weather

Miller-Herrold Airport
Cedar, Michigan, United States

Public forecast

Using degrees Fahrenheit for public forecast. Weather courtesy of forecast.io.

METAR (pilot weather report)

Closest report is Cherry Capital Airport, 12.0 nm (22.2 km) SE. Retrieved 2019/06/25 00:53 UTC (45 minutes ago):

KTVC 250053Z 18004KT 10SM FEW050 BKN090 BKN150 19/17 A2953 RMK AO2 SLP997 T01940167

TAF (pilot weather forecast)

Forecast is more than 12 hours old.

Closest forecast is Cherry Capital Airport, 12.0 nm (22.2 km) SE. Retrieved 2019/06/24 00:36 UTC (1 day ago):

TAF KTVC 242333Z 2500/2524 21006KT 6SM -SHRA BR SCT024 OVC050 FM250700 22011G19KT P6SM -SHRA OVC011 FM250900 25012KT P6SM VCSH OVC030 FM251100 25011G19KT P6SM OVC050